Elizabeth Ann — WCZ5348 — position and weather

sailwx.info

Track history (hours):
 
Tides and Currents Weather Stations Pressure Air Temp Water Temp Dewpoint Dewpoint Depression Visibility Wind Speed Wind Dir Waves Ship Positions

Elizabeth Ann

Owner: ATLANTIC GULF TOWING LLC, Chesapeake, VA. More information available from US FCC via Universal Licensing System and Coast Guard Vessel Documentation Center.

Last reported at 2016-Aug-14 04:23 UTC. Time now 2016-Aug-27 18:48 UTC.
Position N 34°25' W 076°12'.
Warning: this ship's position is 13 days out of date.

Length 32 m; draft 4 m.

Type: Tug. MMSI: 366773150.

Date/timePositionNaut miles runAvg speedWind from/ knotsBaromVisibWave heightAir tempDewpointWater temp
2016-Aug-14 04:23N 34°25' W 076°12'149 5.0
2016-Aug-12 22:31N 36°53' W 075°55'6 5.8
2016-Aug-12 21:33N 36°57' W 076°00'16 5.2
2016-Aug-12 18:28N 36°58' W 076°20'6 6.9
2016-Aug-12 17:33N 36°52' W 076°20'5 5.1
2016-Aug-12 16:33N 36°47' W 076°18'1 1.3
2016-Aug-12 15:33N 36°46' W 076°18'1 1.2
2016-Aug-12 14:33N 36°45' W 076°18'0 0.0
2016-Aug-12 13:33N 36°45' W 076°18'0 0.0
2016-Aug-12 12:33N 36°45' W 076°18'0 0.0
2016-Aug-12 11:33N 36°45' W 076°18'0 0.0
2016-Aug-12 10:33N 36°45' W 076°18'0 0.0
2016-Aug-12 09:33N 36°45' W 076°18'0 0.0
2016-Aug-12 08:33N 36°45' W 076°18'0 0.0
2016-Aug-12 07:33N 36°45' W 076°18'0 0.0
2016-Aug-12 06:30N 36°45' W 076°18'0 0.0
2016-Aug-12 05:33N 36°45' W 076°18'0 0.0
2016-Aug-12 04:33N 36°45' W 076°18'0 0.0
2016-Aug-12 03:33N 36°45' W 076°18'0 0.0
2016-Aug-12 02:33N 36°45' W 076°18'0 0.0
2016-Aug-12 01:34N 36°45' W 076°18'1 1.2
2016-Aug-12 00:33N 36°46' W 076°18'1 1.2
2016-Aug-11 23:33N 36°45' W 076°18'0 0.0
2016-Aug-11 22:33N 36°45' W 076°18'0 0.0
2016-Aug-11 21:32N 36°45' W 076°18'0 0.0
2016-Aug-11 20:33N 36°45' W 076°18'0 0.0
2016-Aug-11 19:33N 36°45' W 076°18'0 0.0
2016-Aug-11 18:33N 36°45' W 076°18'0 0.0
2016-Aug-11 17:33N 36°45' W 076°18'1 0.6
2016-Aug-11 16:33N 36°45' W 076°18'2 2.3
2016-Aug-11 15:33N 36°47' W 076°18'5 5.2
2016-Aug-11 14:33N 36°52' W 076°20'10 4.0
2016-Aug-11 12:07N 37°00' W 076°12'5 7.7
2016-Aug-11 11:30N 36°59' W 076°07'7 7.5
2016-Aug-11 10:33N 36°56' W 075°58'  
Track history (hours):
 
Tides and Currents Weather Stations Pressure Air Temp Water Temp Dewpoint Dewpoint Depression Visibility Wind Speed Wind Dir Waves Ship Positions

Elizabeth Ann

Owner: ATLANTIC GULF TOWING LLC, Chesapeake, VA. More information available from US FCC via Universal Licensing System and Coast Guard Vessel Documentation Center.

Last reported at 2016-Aug-14 04:23 UTC. Time now 2016-Aug-27 18:48 UTC.
Position N 34°25' W 076°12'.
Warning: this ship's position is 13 days out of date.

Length 32 m; draft 4 m.

Type: Tug. MMSI: 366773150.

Date/timePositionNaut miles runAvg speedWind from/ knotsBaromVisibWave heightAir tempDewpointWater temp
2016-Aug-14 04:23N 34°25' W 076°12'149 5.0
2016-Aug-12 22:31N 36°53' W 075°55'6 5.8
2016-Aug-12 21:33N 36°57' W 076°00'16 5.2
2016-Aug-12 18:28N 36°58' W 076°20'6 6.9
2016-Aug-12 17:33N 36°52' W 076°20'5 5.1
2016-Aug-12 16:33N 36°47' W 076°18'1 1.3
2016-Aug-12 15:33N 36°46' W 076°18'1 1.2
2016-Aug-12 14:33N 36°45' W 076°18'0 0.0
2016-Aug-12 13:33N 36°45' W 076°18'0 0.0
2016-Aug-12 12:33N 36°45' W 076°18'0 0.0
2016-Aug-12 11:33N 36°45' W 076°18'0 0.0
2016-Aug-12 10:33N 36°45' W 076°18'0 0.0
2016-Aug-12 09:33N 36°45' W 076°18'0 0.0
2016-Aug-12 08:33N 36°45' W 076°18'0 0.0
2016-Aug-12 07:33N 36°45' W 076°18'0 0.0
2016-Aug-12 06:30N 36°45' W 076°18'0 0.0
2016-Aug-12 05:33N 36°45' W 076°18'0 0.0
2016-Aug-12 04:33N 36°45' W 076°18'0 0.0
2016-Aug-12 03:33N 36°45' W 076°18'0 0.0
2016-Aug-12 02:33N 36°45' W 076°18'0 0.0
2016-Aug-12 01:34N 36°45' W 076°18'1 1.2
2016-Aug-12 00:33N 36°46' W 076°18'1 1.2
2016-Aug-11 23:33N 36°45' W 076°18'0 0.0
2016-Aug-11 22:33N 36°45' W 076°18'0 0.0
2016-Aug-11 21:32N 36°45' W 076°18'0 0.0
2016-Aug-11 20:33N 36°45' W 076°18'0 0.0
2016-Aug-11 19:33N 36°45' W 076°18'0 0.0
2016-Aug-11 18:33N 36°45' W 076°18'0 0.0
2016-Aug-11 17:33N 36°45' W 076°18'1 0.6
2016-Aug-11 16:33N 36°45' W 076°18'2 2.3
2016-Aug-11 15:33N 36°47' W 076°18'5 5.2
2016-Aug-11 14:33N 36°52' W 076°20'10 4.0
2016-Aug-11 12:07N 37°00' W 076°12'5 7.7
2016-Aug-11 11:30N 36°59' W 076°07'7 7.5
2016-Aug-11 10:33N 36°56' W 075°58'  

Dump ship's entire track history